createdAt,value
2022-12-01T00:01:35.541Z,12.00
2022-12-01T00:04:03.826Z,12.30
2022-12-01T00:06:31.882Z,11.30
2022-12-01T00:09:20.209Z,13.10
2022-12-01T00:11:49.138Z,12.40
2022-12-01T00:14:17.871Z,13.40
2022-12-01T00:16:46.013Z,11.70
2022-12-01T00:19:14.109Z,12.40
2022-12-01T00:21:42.179Z,4.80
2022-12-01T00:24:12.013Z,12.10
2022-12-01T00:26:40.185Z,11.60
2022-12-01T00:29:09.669Z,14.20
2022-12-01T00:31:38.220Z,12.60
2022-12-01T00:34:11.022Z,12.00
2022-12-01T00:36:39.788Z,13.70
2022-12-01T00:39:08.629Z,11.90
2022-12-01T00:41:36.668Z,12.90
2022-12-01T00:44:05.097Z,12.40
2022-12-01T00:46:33.541Z,13.30
2022-12-01T00:49:01.785Z,12.50
2022-12-01T00:51:30.345Z,12.50
2022-12-01T00:53:58.492Z,11.80
2022-12-01T00:56:26.563Z,13.10
2022-12-01T00:58:54.637Z,11.50
2022-12-01T01:01:23.143Z,12.10
2022-12-01T01:03:51.235Z,12.10
2022-12-01T01:06:19.273Z,12.10
2022-12-01T01:08:47.327Z,13.20
2022-12-01T01:11:15.424Z,12.30
2022-12-01T01:13:43.511Z,12.20
2022-12-01T01:16:18.480Z,10.80
2022-12-01T01:18:47.004Z,12.20
2022-12-01T01:21:17.716Z,12.80
2022-12-01T01:23:45.816Z,12.20
2022-12-01T01:26:20.974Z,11.60
2022-12-01T01:28:50.464Z,11.80
2022-12-01T01:31:21.812Z,12.20
2022-12-01T01:33:51.323Z,12.70
2022-12-01T01:36:19.808Z,12.40
2022-12-01T01:38:48.378Z,12.50
2022-12-01T01:41:16.440Z,12.30
2022-12-01T01:43:49.038Z,10.90
2022-12-01T01:46:28.911Z,12.10
2022-12-01T01:49:02.414Z,13.00
2022-12-01T01:51:53.766Z,13.20
2022-12-01T01:54:29.548Z,13.70
2022-12-01T01:56:58.808Z,10.10
2022-12-01T01:59:32.539Z,12.40
2022-12-01T02:02:06.768Z,12.70
2022-12-01T02:04:37.073Z,12.10
2022-12-01T02:07:05.845Z,13.00
2022-12-01T02:09:34.235Z,11.50
2022-12-01T02:12:36.492Z,12.90
2022-12-01T02:15:42.861Z,11.60
2022-12-01T02:18:43.826Z,11.80
2022-12-01T02:21:26.917Z,12.90
2022-12-01T02:24:00.658Z,11.60
2022-12-01T02:26:39.882Z,12.60
2022-12-01T02:29:23.314Z,12.30
2022-12-01T02:31:57.178Z,13.80
2022-12-01T02:34:34.839Z,13.30
2022-12-01T02:37:16.296Z,12.80
2022-12-01T02:40:03.686Z,11.90
2022-12-01T02:42:52.467Z,12.80
2022-12-01T02:45:32.022Z,11.30
2022-12-01T02:48:03.359Z,13.30
2022-12-01T02:50:35.339Z,12.20
2022-12-01T02:55:32.993Z,11.90
2022-12-01T02:58:01.016Z,13.60
2022-12-01T03:00:31.099Z,12.50
2022-12-01T03:03:27.132Z,12.40
2022-12-01T03:06:20.669Z,12.10
2022-12-01T03:09:02.715Z,11.80
2022-12-01T03:14:28.322Z,12.70
2022-12-01T03:16:59.680Z,11.90
2022-12-01T03:19:53.043Z,12.90
2022-12-01T03:22:34.192Z,12.10
2022-12-01T03:25:04.442Z,11.70
2022-12-01T03:27:37.882Z,10.60
2022-12-01T03:30:10.911Z,12.20
2022-12-01T03:32:42.567Z,10.20
2022-12-01T03:35:38.193Z,11.00
2022-12-01T03:38:18.128Z,11.30
2022-12-01T03:40:51.156Z,10.90
2022-12-01T03:43:25.380Z,10.10
2022-12-01T03:46:19.967Z,11.10
2022-12-01T03:48:48.071Z,9.70
2022-12-01T03:51:31.856Z,10.20
2022-12-01T03:54:07.907Z,10.90
2022-12-01T03:56:46.840Z,11.60
2022-12-01T03:59:18.585Z,11.50
2022-12-01T04:01:47.296Z,10.30
2022-12-01T04:04:16.763Z,10.30
2022-12-01T04:06:47.949Z,11.20
2022-12-01T04:09:16.268Z,9.10
2022-12-01T04:12:02.915Z,9.90
2022-12-01T04:14:30.947Z,10.20
2022-12-01T04:16:59.029Z,10.30
2022-12-01T04:19:27.111Z,10.40
2022-12-01T04:21:55.146Z,10.30
2022-12-01T04:24:23.243Z,9.40
2022-12-01T04:26:51.265Z,10.00
2022-12-01T04:29:19.256Z,10.50
2022-12-01T04:31:47.307Z,11.10
2022-12-01T04:34:15.361Z,10.30
2022-12-01T04:36:43.381Z,11.10
2022-12-01T04:39:11.423Z,10.80
2022-12-01T04:41:39.468Z,11.30
2022-12-01T04:44:09.473Z,9.90
2022-12-01T04:46:37.951Z,10.50
2022-12-01T04:49:06.648Z,10.10
2022-12-01T04:51:34.716Z,10.40
2022-12-01T04:54:03.391Z,10.20
2022-12-01T04:56:32.460Z,10.00
2022-12-01T04:59:01.182Z,10.00
2022-12-01T05:01:29.612Z,11.40
2022-12-01T05:03:57.631Z,10.20
2022-12-01T05:06:28.352Z,10.30
2022-12-01T05:08:59.517Z,9.40
2022-12-01T05:11:29.523Z,9.70
2022-12-01T05:13:58.107Z,9.10
2022-12-01T05:16:28.775Z,10.20
2022-12-01T05:19:18.831Z,11.00
2022-12-01T05:21:48.823Z,12.00
2022-12-01T05:24:19.045Z,10.60
2022-12-01T05:26:47.556Z,12.50
2022-12-01T05:29:15.597Z,12.50
2022-12-01T05:31:45.823Z,13.10
2022-12-01T05:34:14.105Z,13.60
2022-12-01T05:36:42.145Z,12.10
2022-12-01T05:39:10.179Z,16.60
2022-12-01T05:41:38.213Z,18.20
2022-12-01T05:44:06.278Z,21.10
2022-12-01T05:46:34.278Z,19.20
2022-12-01T05:49:02.277Z,18.90
2022-12-01T05:51:30.332Z,16.20
2022-12-01T05:54:01.613Z,13.20
2022-12-01T05:56:29.677Z,16.20
2022-12-01T05:58:57.863Z,15.80
2022-12-01T06:01:25.941Z,16.40
2022-12-01T06:03:54.563Z,15.80
2022-12-01T06:06:22.640Z,14.90
2022-12-01T06:08:50.671Z,13.40
2022-12-01T06:11:21.216Z,13.20
2022-12-01T06:13:49.203Z,14.20
2022-12-01T06:16:17.268Z,15.70
2022-12-01T06:18:45.280Z,14.20
2022-12-01T06:21:13.351Z,15.60
2022-12-01T06:23:41.377Z,20.20
2022-12-01T06:26:09.436Z,16.30
2022-12-01T06:28:37.424Z,15.40
2022-12-01T06:31:05.728Z,14.90
2022-12-01T06:33:33.851Z,28.80
2022-12-01T06:36:05.414Z,18.20
2022-12-01T06:38:35.842Z,20.40
2022-12-01T06:41:05.490Z,27.00
2022-12-01T06:43:37.178Z,21.80
2022-12-01T06:46:06.097Z,20.10
2022-12-01T06:48:34.711Z,23.20
2022-12-01T06:51:03.157Z,21.50
2022-12-01T06:53:31.335Z,21.50
2022-12-01T06:56:04.901Z,21.00
2022-12-01T06:58:34.735Z,22.10
2022-12-01T07:01:11.249Z,19.90
2022-12-01T07:03:39.825Z,20.90
2022-12-01T07:06:07.887Z,16.50
2022-12-01T07:08:35.965Z,15.70
2022-12-01T07:11:09.753Z,16.50
2022-12-01T07:13:37.802Z,14.70
2022-12-01T07:16:07.722Z,15.50
2022-12-01T07:18:37.411Z,15.70
2022-12-01T07:21:08.992Z,19.90
2022-12-01T07:23:37.029Z,14.90
2022-12-01T07:26:08.333Z,18.50
2022-12-01T07:28:36.501Z,20.00
2022-12-01T07:31:09.660Z,20.30
2022-12-01T07:33:38.652Z,21.30
2022-12-01T07:36:08.064Z,19.90
2022-12-01T07:38:37.656Z,16.60
2022-12-01T07:41:08.110Z,19.10
2022-12-01T07:43:36.987Z,19.30
2022-12-01T07:46:18.758Z,21.60
2022-12-01T07:48:49.061Z,17.40
2022-12-01T07:51:17.865Z,44.50
2022-12-01T07:53:47.841Z,60.40
2022-12-01T07:56:17.129Z,42.70
2022-12-01T07:58:45.595Z,18.30
2022-12-01T08:01:16.533Z,31.20
2022-12-01T08:03:45.106Z,20.80
2022-12-01T08:06:13.288Z,15.70
2022-12-01T08:08:42.070Z,17.80
2022-12-01T08:11:18.939Z,16.20
2022-12-01T08:13:47.007Z,17.90
2022-12-01T08:16:17.260Z,14.40
2022-12-01T08:18:46.072Z,14.40
2022-12-01T08:21:16.650Z,12.90
2022-12-01T08:23:45.036Z,12.30
2022-12-01T08:26:16.156Z,14.10
2022-12-01T08:28:45.226Z,16.00
2022-12-01T08:31:18.012Z,12.20
2022-12-01T08:33:47.876Z,15.30
2022-12-01T08:36:16.005Z,16.30
2022-12-01T08:38:45.883Z,15.00
2022-12-01T08:41:14.703Z,15.30
2022-12-01T08:44:00.937Z,17.60
2022-12-01T08:46:33.164Z,15.10
2022-12-01T08:49:02.837Z,14.40
2022-12-01T08:51:31.304Z,15.30
2022-12-01T08:54:00.707Z,13.30
2022-12-01T08:56:32.669Z,16.30
2022-12-01T09:01:29.515Z,15.80
2022-12-01T09:04:10.766Z,18.80
2022-12-01T09:06:42.624Z,23.20
2022-12-01T09:11:41.429Z,15.80
2022-12-01T09:14:10.477Z,15.50
2022-12-01T09:16:38.602Z,19.00
2022-12-01T09:19:07.205Z,23.80
2022-12-01T09:21:39.459Z,22.90
2022-12-01T09:24:08.520Z,27.00
2022-12-01T09:26:36.616Z,19.10
2022-12-01T09:29:08.175Z,25.30
2022-12-01T09:31:37.504Z,19.20
2022-12-01T09:34:08.760Z,25.10
2022-12-01T09:36:37.736Z,17.70
2022-12-01T09:39:08.192Z,13.40
2022-12-01T09:42:09.126Z,12.40
2022-12-01T09:44:43.481Z,12.80
2022-12-01T09:47:14.274Z,11.20
2022-12-01T09:49:46.522Z,11.00
2022-12-01T09:52:19.901Z,12.70
2022-12-01T09:54:48.929Z,13.00
2022-12-01T09:57:38.681Z,12.20
2022-12-01T10:00:16.878Z,12.50
2022-12-01T10:03:13.032Z,14.60
2022-12-01T10:06:25.880Z,11.20
2022-12-01T10:08:57.781Z,12.90
2022-12-01T10:11:34.662Z,13.10
2022-12-01T10:16:40.317Z,11.40
2022-12-01T10:19:15.466Z,13.10
2022-12-01T10:22:23.892Z,14.60
2022-12-01T10:24:59.459Z,20.20
2022-12-01T10:27:52.807Z,28.60
2022-12-01T10:30:23.850Z,17.80
2022-12-01T10:32:53.556Z,14.50
2022-12-01T10:35:29.326Z,12.70
2022-12-01T10:38:01.961Z,14.30
2022-12-01T10:40:34.778Z,20.80
2022-12-01T10:43:03.699Z,18.40
2022-12-01T10:45:40.816Z,13.90
2022-12-01T10:48:11.572Z,12.10
2022-12-01T10:50:39.743Z,18.10
2022-12-01T10:53:23.022Z,16.60
2022-12-01T10:56:05.630Z,18.00
2022-12-01T10:58:42.575Z,13.80
2022-12-01T11:01:27.086Z,26.30
2022-12-01T11:04:04.100Z,25.40
2022-12-01T11:06:33.046Z,21.30
2022-12-01T11:09:26.017Z,16.00
2022-12-01T11:12:04.986Z,17.90
2022-12-01T11:14:51.086Z,12.60
2022-12-01T11:17:43.377Z,12.20
2022-12-01T11:23:09.694Z,11.70
2022-12-01T11:25:38.349Z,11.30
2022-12-01T11:28:06.666Z,13.20
2022-12-01T11:30:34.864Z,14.10
2022-12-01T11:33:04.844Z,16.00
2022-12-01T11:35:38.131Z,12.60
2022-12-01T11:40:57.862Z,14.90
2022-12-01T11:43:37.386Z,16.10
2022-12-01T11:46:09.303Z,12.10
2022-12-01T11:51:05.696Z,9.70
2022-12-01T11:53:39.114Z,9.30
2022-12-01T11:56:25.352Z,9.00
2022-12-01T11:59:02.562Z,11.00
2022-12-01T12:01:49.065Z,10.70
2022-12-01T12:04:49.681Z,10.10
2022-12-01T12:07:55.436Z,12.00
2022-12-01T12:10:27.218Z,9.90
2022-12-01T12:13:07.187Z,8.30
2022-12-01T12:15:55.405Z,8.80
2022-12-01T12:18:42.179Z,9.80
2022-12-01T12:21:10.624Z,11.00
2022-12-01T12:24:07.029Z,10.50
2022-12-01T12:26:50.868Z,13.10
2022-12-01T12:29:51.060Z,19.40
2022-12-01T12:32:27.456Z,14.20
2022-12-01T12:35:23.373Z,17.70
2022-12-01T12:38:08.901Z,7.80
2022-12-01T12:40:49.633Z,14.60
2022-12-01T12:43:30.581Z,14.70
2022-12-01T12:46:12.506Z,13.60
2022-12-01T12:49:19.880Z,8.60
2022-12-01T12:52:08.091Z,8.60
2022-12-01T12:54:57.398Z,8.30
2022-12-01T12:57:31.460Z,8.50
2022-12-01T13:00:08.346Z,12.70
2022-12-01T13:02:44.384Z,15.80
2022-12-01T13:05:18.950Z,11.50
2022-12-01T13:08:03.388Z,12.10
2022-12-01T13:10:44.917Z,12.30
2022-12-01T13:13:27.937Z,13.20
2022-12-01T13:15:58.906Z,17.00
2022-12-01T13:18:47.091Z,13.20
2022-12-01T13:21:22.008Z,7.90
2022-12-01T13:23:51.858Z,10.40
2022-12-01T13:26:22.338Z,10.10
2022-12-01T13:28:56.719Z,8.90
2022-12-01T13:31:25.220Z,12.80
2022-12-01T13:34:00.939Z,13.60
2022-12-01T13:36:46.259Z,11.50
2022-12-01T13:39:27.890Z,11.90
2022-12-01T13:42:06.368Z,12.20
2022-12-01T13:44:51.512Z,10.70
2022-12-01T13:47:19.928Z,15.90
2022-12-01T13:49:52.776Z,16.90
2022-12-01T13:52:30.426Z,16.70
2022-12-01T13:55:07.561Z,9.80
2022-12-01T13:57:39.099Z,11.80
2022-12-01T14:00:22.162Z,19.30
2022-12-01T14:03:15.110Z,16.00
2022-12-01T14:06:27.075Z,24.60
2022-12-01T14:09:00.284Z,21.40
2022-12-01T14:11:34.252Z,20.60
2022-12-01T14:14:39.421Z,16.30
2022-12-01T14:17:24.474Z,14.80
2022-12-01T14:19:54.300Z,25.00
2022-12-01T14:22:35.605Z,25.30
2022-12-01T14:25:30.635Z,92.00
2022-12-01T14:28:03.689Z,63.70
2022-12-01T14:30:46.929Z,37.80
2022-12-01T14:33:40.081Z,21.00
2022-12-01T14:36:17.189Z,23.90
2022-12-01T14:38:47.551Z,28.10
2022-12-01T14:41:29.550Z,21.70
2022-12-01T14:46:45.196Z,31.80
2022-12-01T14:49:21.743Z,35.80
2022-12-01T14:51:56.549Z,30.60
2022-12-01T14:54:35.160Z,28.10
2022-12-01T14:57:09.962Z,29.20
2022-12-01T14:59:41.121Z,24.30
2022-12-01T15:02:12.374Z,24.70
2022-12-01T15:05:16.593Z,19.10
2022-12-01T15:07:49.016Z,22.50
2022-12-01T15:10:24.114Z,32.10
2022-12-01T15:12:53.705Z,40.40
2022-12-01T15:15:27.019Z,34.70
2022-12-01T15:17:56.003Z,23.60
2022-12-01T15:20:41.283Z,36.90
2022-12-01T15:23:16.307Z,43.00
2022-12-01T15:25:46.438Z,63.00
2022-12-01T15:28:18.074Z,106.50
2022-12-01T15:30:50.255Z,56.20
2022-12-01T15:33:27.305Z,40.90
2022-12-01T15:35:58.946Z,42.90
2022-12-01T15:38:33.318Z,61.10
2022-12-01T15:44:00.659Z,74.20
2022-12-01T15:46:31.642Z,47.90
2022-12-01T15:49:08.687Z,29.90
2022-12-01T15:51:36.947Z,19.70
2022-12-01T15:54:05.198Z,15.40
2022-12-01T15:56:41.521Z,13.10
2022-12-01T15:59:13.935Z,15.30
2022-12-01T16:01:44.079Z,16.60
2022-12-01T16:04:28.184Z,16.00
2022-12-01T16:07:07.088Z,14.20
2022-12-01T16:09:56.924Z,14.00
2022-12-01T16:12:27.578Z,15.30
2022-12-01T16:14:57.110Z,16.80
2022-12-01T16:17:26.556Z,16.40
2022-12-01T16:20:33.069Z,13.80
2022-12-01T16:23:05.629Z,11.70
2022-12-01T16:25:37.269Z,10.10
2022-12-01T16:28:07.554Z,10.00
2022-12-01T16:30:39.066Z,11.30
2022-12-01T16:33:17.170Z,10.50
2022-12-01T16:35:46.196Z,11.70
2022-12-01T16:38:22.982Z,12.20
2022-12-01T16:40:56.565Z,11.80
2022-12-01T16:43:26.964Z,11.20
2022-12-01T16:46:00.630Z,14.50
2022-12-01T16:48:30.184Z,12.60
2022-12-01T16:51:03.219Z,12.40
2022-12-01T16:53:32.197Z,12.30
2022-12-01T16:56:02.092Z,16.50
2022-12-01T16:58:31.180Z,15.00
2022-12-01T17:01:00.004Z,13.40
2022-12-01T17:03:28.572Z,11.60
2022-12-01T17:06:00.443Z,12.80
2022-12-01T17:10:57.140Z,24.10
2022-12-01T17:13:25.221Z,19.20
2022-12-01T17:15:55.058Z,15.40
2022-12-01T17:18:24.416Z,16.20
2022-12-01T17:21:01.509Z,18.10
2022-12-01T17:23:29.879Z,26.10
2022-12-01T17:25:57.894Z,24.40
2022-12-01T17:28:26.253Z,17.20
2022-12-01T17:30:54.391Z,16.40
2022-12-01T17:33:22.479Z,17.50
2022-12-01T17:35:50.579Z,19.70
2022-12-01T17:38:18.658Z,18.40
2022-12-01T17:41:01.948Z,19.80
2022-12-01T17:43:30.198Z,22.80
2022-12-01T17:45:59.143Z,20.90
2022-12-01T17:48:28.227Z,13.90
2022-12-01T17:50:56.420Z,14.00
2022-12-01T17:53:24.481Z,21.60
2022-12-01T17:55:52.516Z,26.70
2022-12-01T17:58:21.798Z,42.20
2022-12-01T18:00:52.106Z,51.70
2022-12-01T18:03:21.286Z,42.10
2022-12-01T18:06:00.793Z,56.90
2022-12-01T18:08:31.010Z,33.30
2022-12-01T18:11:07.829Z,26.50
2022-12-01T18:13:41.858Z,29.90
2022-12-01T18:16:13.081Z,31.60
2022-12-01T18:18:41.848Z,28.70
2022-12-01T18:21:12.905Z,20.20
2022-12-01T18:23:41.013Z,18.50
2022-12-01T18:26:15.671Z,22.80
2022-12-01T18:28:44.697Z,19.00
2022-12-01T18:31:15.320Z,17.30
2022-12-01T18:33:45.418Z,22.30
2022-12-01T18:36:16.897Z,19.00
2022-12-01T18:38:47.396Z,21.60
2022-12-01T18:41:16.477Z,18.80
2022-12-01T18:43:45.453Z,21.30
2022-12-01T18:46:16.399Z,25.50
2022-12-01T18:48:49.552Z,39.70
2022-12-01T18:51:18.220Z,27.60
2022-12-01T18:53:46.336Z,18.20
2022-12-01T18:56:15.333Z,20.90
2022-12-01T18:58:43.667Z,20.30
2022-12-01T19:01:39.940Z,25.40
2022-12-01T19:04:09.656Z,31.70
2022-12-01T19:06:40.461Z,27.60
2022-12-01T19:09:10.713Z,20.90
2022-12-01T19:11:41.281Z,22.00
2022-12-01T19:14:14.875Z,19.40
2022-12-01T19:16:43.908Z,23.10
2022-12-01T19:19:12.160Z,19.60
2022-12-01T19:21:40.857Z,18.20
2022-12-01T19:24:08.959Z,17.90
2022-12-01T19:26:37.032Z,14.70
2022-12-01T19:29:05.280Z,20.90
2022-12-01T19:31:33.500Z,16.10
2022-12-01T19:34:04.626Z,18.40
2022-12-01T19:36:33.013Z,17.70
2022-12-01T19:39:04.379Z,16.80
2022-12-01T19:41:38.646Z,18.60
2022-12-01T19:44:07.293Z,17.20
2022-12-01T19:46:35.463Z,21.60
2022-12-01T19:49:05.061Z,16.90
2022-12-01T19:51:36.107Z,15.60
2022-12-01T19:54:06.286Z,18.20
2022-12-01T19:56:34.676Z,18.10
2022-12-01T19:59:02.866Z,20.00
2022-12-01T20:01:31.042Z,10.80
2022-12-01T20:03:59.172Z,18.80
2022-12-01T20:06:30.043Z,15.50
2022-12-01T20:09:00.551Z,16.90
2022-12-01T20:11:29.964Z,14.40
2022-12-01T20:13:58.401Z,17.30
2022-12-01T20:16:28.492Z,16.70
2022-12-01T20:19:00.787Z,21.30
2022-12-01T20:21:31.841Z,13.70
2022-12-01T20:24:06.328Z,12.90
2022-12-01T20:26:37.655Z,8.90
2022-12-01T20:29:09.564Z,20.40
2022-12-01T20:34:10.748Z,10.50
2022-12-01T20:36:40.620Z,13.50
2022-12-01T20:39:10.920Z,13.20
2022-12-01T20:41:40.577Z,12.60
2022-12-01T20:44:09.754Z,17.00
2022-12-01T20:46:38.533Z,20.80
2022-12-01T20:49:07.352Z,17.10
2022-12-01T20:51:35.624Z,20.40
2022-12-01T20:54:27.216Z,18.50
2022-12-01T20:56:54.495Z,14.60
2022-12-01T20:59:22.586Z,13.80
2022-12-01T21:01:50.913Z,15.50
2022-12-01T21:04:18.983Z,12.50
2022-12-01T21:06:47.352Z,11.80
2022-12-01T21:09:15.481Z,11.90
2022-12-01T21:12:08.222Z,12.10
2022-12-01T21:14:42.464Z,11.30
2022-12-01T21:17:31.682Z,11.60
2022-12-01T21:20:04.982Z,12.50
2022-12-01T21:22:34.081Z,12.00
2022-12-01T21:25:10.678Z,13.30
2022-12-01T21:27:38.745Z,12.70
2022-12-01T21:30:26.528Z,12.20
2022-12-01T21:33:01.078Z,14.30
2022-12-01T21:35:29.113Z,13.90
2022-12-01T21:38:11.307Z,11.70
2022-12-01T21:40:44.024Z,12.10
2022-12-01T21:43:24.210Z,13.70
2022-12-01T21:45:56.236Z,12.50
2022-12-01T21:48:25.092Z,11.40
2022-12-01T21:51:11.932Z,12.20
2022-12-01T21:53:40.158Z,15.30
2022-12-01T21:56:22.307Z,16.40
2022-12-01T21:58:50.729Z,14.90
2022-12-01T22:01:32.977Z,13.10
2022-12-01T22:04:06.350Z,12.40
2022-12-01T22:06:40.225Z,10.80
2022-12-01T22:09:35.210Z,10.70
2022-12-01T22:12:27.755Z,11.10
2022-12-01T22:15:01.046Z,12.30
2022-12-01T22:17:30.198Z,13.30
2022-12-01T22:20:01.653Z,10.70
2022-12-01T22:22:32.709Z,10.60
2022-12-01T22:25:22.523Z,10.40
2022-12-01T22:27:51.195Z,10.50
2022-12-01T22:30:24.034Z,10.90
2022-12-01T22:33:05.706Z,10.40
2022-12-01T22:35:42.426Z,10.90
2022-12-01T22:38:21.687Z,10.10
2022-12-01T22:40:51.586Z,10.70
2022-12-01T22:43:24.937Z,9.50
2022-12-01T22:46:07.398Z,8.80
2022-12-01T22:48:41.565Z,10.50
2022-12-01T22:51:35.272Z,10.10
2022-12-01T22:54:12.147Z,9.30
2022-12-01T22:56:43.140Z,10.20
2022-12-01T22:59:35.263Z,10.70
2022-12-01T23:02:35.829Z,10.40
2022-12-01T23:05:27.167Z,11.40
2022-12-01T23:07:56.325Z,10.50
2022-12-01T23:10:35.322Z,9.20
2022-12-01T23:13:15.468Z,12.00
2022-12-01T23:15:49.009Z,10.10
2022-12-01T23:18:22.776Z,8.30
2022-12-01T23:20:53.085Z,9.70
2022-12-01T23:23:29.975Z,9.30
2022-12-01T23:25:59.242Z,10.60
2022-12-01T23:28:29.385Z,9.80
2022-12-01T23:30:59.816Z,9.60
2022-12-01T23:33:35.388Z,9.60
2022-12-01T23:36:11.927Z,9.40
2022-12-01T23:38:45.542Z,9.90
2022-12-01T23:41:34.692Z,10.10
2022-12-01T23:44:39.014Z,11.00
2022-12-01T23:47:17.412Z,10.60
2022-12-01T23:49:47.010Z,11.00
2022-12-01T23:52:20.153Z,10.40
2022-12-01T23:54:48.733Z,10.40
2022-12-01T23:57:23.669Z,10.90
2022-12-01T23:59:55.309Z,10.30
